createdAt,value
2018-10-16T00:00:16.352Z,8.91
2018-10-16T00:02:46.403Z,8.82
2018-10-16T00:05:16.601Z,8.80
2018-10-16T00:07:46.089Z,8.71
2018-10-16T00:10:19.573Z,8.57
2018-10-16T00:12:48.991Z,8.54
2018-10-16T00:15:18.395Z,8.58
2018-10-16T00:17:47.784Z,8.36
2018-10-16T00:20:17.180Z,8.50
2018-10-16T00:22:46.583Z,8.51
2018-10-16T00:25:17.440Z,8.59
2018-10-16T00:27:46.887Z,8.65
2018-10-16T00:30:16.360Z,8.65
2018-10-16T00:32:45.906Z,8.63
2018-10-16T00:35:15.353Z,8.67
2018-10-16T00:37:44.744Z,8.66
2018-10-16T00:40:14.123Z,8.60
2018-10-16T00:42:43.524Z,8.58
2018-10-16T00:45:13.191Z,8.62
2018-10-16T00:47:42.607Z,8.63
2018-10-16T00:50:12.127Z,8.60
2018-10-16T00:52:41.568Z,8.54
2018-10-16T00:55:11.151Z,8.50
2018-10-16T00:57:41.203Z,8.49
2018-10-16T01:00:12.290Z,8.46
2018-10-16T01:02:42.599Z,8.39
2018-10-16T01:05:12.832Z,8.35
2018-10-16T01:07:42.755Z,8.30
2018-10-16T01:10:12.916Z,8.30
2018-10-16T01:12:42.499Z,8.19
2018-10-16T01:15:12.543Z,8.12
2018-10-16T01:17:42.127Z,8.03
2018-10-16T01:20:13.261Z,7.92
2018-10-16T01:22:43.142Z,7.91
2018-10-16T01:25:13.416Z,7.88
2018-10-16T01:27:42.808Z,7.85
2018-10-16T01:30:12.299Z,7.82
2018-10-16T01:32:41.715Z,7.75
2018-10-16T01:35:12.271Z,7.78
2018-10-16T01:37:42.079Z,7.80
2018-10-16T01:40:11.900Z,7.73
2018-10-16T01:42:41.311Z,7.72
2018-10-16T01:45:11.212Z,7.82
2018-10-16T01:47:40.616Z,7.84
2018-10-16T01:50:10.073Z,7.87
2018-10-16T01:52:39.535Z,7.90
2018-10-16T01:55:08.947Z,7.78
2018-10-16T01:57:38.368Z,7.74
2018-10-16T02:00:09.365Z,7.70
2018-10-16T02:02:38.953Z,7.68
2018-10-16T02:05:08.632Z,7.74
2018-10-16T02:07:38.076Z,7.82
2018-10-16T02:10:08.015Z,7.83
2018-10-16T02:12:37.636Z,7.83
2018-10-16T02:15:08.520Z,7.83
2018-10-16T02:17:38.806Z,7.86
2018-10-16T02:20:08.623Z,7.83
2018-10-16T02:22:38.631Z,7.77
2018-10-16T02:25:08.803Z,7.80
2018-10-16T02:27:38.297Z,7.78
2018-10-16T02:30:07.848Z,7.81
2018-10-16T02:32:37.297Z,7.89
2018-10-16T02:35:08.264Z,7.96
2018-10-16T02:37:37.675Z,8.02
2018-10-16T02:40:08.230Z,8.12
2018-10-16T02:42:38.096Z,8.16
2018-10-16T02:45:08.695Z,8.15
2018-10-16T02:47:38.263Z,8.13
2018-10-16T02:50:08.325Z,8.15
2018-10-16T02:52:37.848Z,8.09
2018-10-16T02:55:09.068Z,8.01
2018-10-16T02:57:38.511Z,7.98
2018-10-16T03:00:08.071Z,7.96
2018-10-16T03:02:37.569Z,8.01
2018-10-16T03:05:07.156Z,8.01
2018-10-16T03:07:36.703Z,8.05
2018-10-16T03:10:06.247Z,8.00
2018-10-16T03:12:35.628Z,7.96
2018-10-16T03:15:08.040Z,7.98
2018-10-16T03:17:37.708Z,7.96
2018-10-16T03:20:07.515Z,7.99
2018-10-16T03:22:37.248Z,7.08
2018-10-16T03:25:08.516Z,7.71
2018-10-16T03:27:38.275Z,7.71
2018-10-16T03:30:09.770Z,7.75
2018-10-16T03:32:39.655Z,7.71
2018-10-16T03:35:10.593Z,7.67
2018-10-16T03:37:41.063Z,7.67
2018-10-16T03:40:11.296Z,7.58
2018-10-16T03:42:41.702Z,7.59
2018-10-16T03:45:12.364Z,7.49
2018-10-16T03:47:41.973Z,7.47
2018-10-16T03:50:11.396Z,7.40
2018-10-16T03:52:40.884Z,7.33
2018-10-16T03:55:10.307Z,7.29
2018-10-16T03:57:39.735Z,7.32
2018-10-16T04:00:10.252Z,7.28
2018-10-16T04:02:39.780Z,7.12
2018-10-16T04:05:09.283Z,7.25
2018-10-16T04:07:39.188Z,7.28
2018-10-16T04:10:09.164Z,7.21
2018-10-16T04:12:38.591Z,7.18
2018-10-16T04:15:09.602Z,7.27
2018-10-16T04:17:39.699Z,7.31
2018-10-16T04:20:09.218Z,7.31
2018-10-16T04:22:38.875Z,7.32
2018-10-16T04:25:08.820Z,7.34
2018-10-16T04:27:38.301Z,7.33
2018-10-16T04:30:08.459Z,7.31
2018-10-16T04:32:37.863Z,7.26
2018-10-16T04:35:13.671Z,7.21
2018-10-16T04:37:43.483Z,7.20
2018-10-16T04:40:13.064Z,7.25
2018-10-16T04:42:42.931Z,7.18
2018-10-16T04:45:13.158Z,7.21
2018-10-16T04:47:42.586Z,7.20
2018-10-16T04:50:11.984Z,7.14
2018-10-16T04:52:41.712Z,7.07
2018-10-16T04:55:11.217Z,6.89
2018-10-16T04:57:40.596Z,6.93
2018-10-16T05:00:10.501Z,6.89
2018-10-16T05:02:41.044Z,6.81
2018-10-16T05:05:19.151Z,6.83
2018-10-16T05:07:48.967Z,6.73
2018-10-16T05:10:25.932Z,6.74
2018-10-16T05:12:55.395Z,6.66
2018-10-16T05:15:30.624Z,6.72
2018-10-16T05:18:00.879Z,6.68
2018-10-16T05:20:30.700Z,6.68
2018-10-16T05:23:00.865Z,6.75
2018-10-16T05:25:30.976Z,6.71
2018-10-16T05:28:00.396Z,6.82
2018-10-16T05:30:29.805Z,6.74
2018-10-16T05:32:59.197Z,6.85
2018-10-16T05:35:28.629Z,6.65
2018-10-16T05:37:58.113Z,6.73
2018-10-16T05:40:27.508Z,6.69
2018-10-16T05:42:57.023Z,6.51
2018-10-16T05:45:27.772Z,6.56
2018-10-16T05:47:57.261Z,5.80
2018-10-16T05:50:26.711Z,6.56
2018-10-16T05:52:56.121Z,6.55
2018-10-16T05:55:25.569Z,6.59
2018-10-16T05:57:54.980Z,6.62
2018-10-16T06:00:36.285Z,6.64
2018-10-16T06:03:06.076Z,6.63
2018-10-16T06:05:35.856Z,6.69
2018-10-16T06:08:05.636Z,6.68
2018-10-16T06:10:35.400Z,6.71
2018-10-16T06:13:04.999Z,6.68
2018-10-16T06:15:34.407Z,6.76
2018-10-16T06:18:03.811Z,6.72
2018-10-16T06:20:33.260Z,6.82
2018-10-16T06:23:02.720Z,6.75
2018-10-16T06:25:32.126Z,6.71
2018-10-16T06:28:14.783Z,6.74
2018-10-16T06:30:44.240Z,6.80
2018-10-16T06:33:14.158Z,6.90
2018-10-16T06:35:43.509Z,6.91
2018-10-16T06:38:12.895Z,6.98
2018-10-16T06:40:42.337Z,7.08
2018-10-16T06:43:11.807Z,7.10
2018-10-16T06:45:41.283Z,7.18
2018-10-16T06:48:11.047Z,7.29
2018-10-16T06:50:40.299Z,7.41
2018-10-16T06:53:09.748Z,7.52
2018-10-16T06:55:39.172Z,7.62
2018-10-16T06:58:08.666Z,7.72
2018-10-16T07:00:38.076Z,7.88
2018-10-16T07:03:07.708Z,8.00
2018-10-16T07:05:37.104Z,8.15
2018-10-16T07:08:06.511Z,8.22
2018-10-16T07:10:35.924Z,8.34
2018-10-16T07:13:05.372Z,8.44
2018-10-16T07:15:34.784Z,8.47
2018-10-16T07:18:04.200Z,8.58
2018-10-16T07:20:33.596Z,8.73
2018-10-16T07:23:03.017Z,8.92
2018-10-16T07:25:32.404Z,8.99
2018-10-16T07:28:01.817Z,9.19
2018-10-16T07:30:31.319Z,9.29
2018-10-16T07:33:00.709Z,9.43
2018-10-16T07:35:30.123Z,9.58
2018-10-16T07:37:59.637Z,9.63
2018-10-16T07:40:28.948Z,9.75
2018-10-16T07:42:58.352Z,9.87
2018-10-16T07:45:27.744Z,9.97
2018-10-16T07:47:57.134Z,10.05
2018-10-16T07:50:26.551Z,10.18
2018-10-16T07:52:55.936Z,10.25
2018-10-16T07:55:25.385Z,10.39
2018-10-16T07:57:54.783Z,10.50
2018-10-16T08:00:24.187Z,10.59
2018-10-16T08:02:53.691Z,10.58
2018-10-16T08:05:23.119Z,10.66
2018-10-16T08:07:52.593Z,10.66
2018-10-16T08:10:22.011Z,10.49
2018-10-16T08:12:51.404Z,10.68
2018-10-16T08:15:20.805Z,10.84
2018-10-16T08:17:50.224Z,11.03
2018-10-16T08:20:19.624Z,11.22
2018-10-16T08:22:49.026Z,11.37
2018-10-16T08:25:18.544Z,11.52
2018-10-16T08:27:47.984Z,11.66
2018-10-16T08:30:17.441Z,11.79
2018-10-16T08:32:46.816Z,11.94
2018-10-16T08:35:16.214Z,12.14
2018-10-16T08:39:56.531Z,12.30
2018-10-16T08:43:44.097Z,12.53
2018-10-16T08:46:30.816Z,12.83
2018-10-16T08:49:17.240Z,13.04
2018-10-16T08:51:50.304Z,13.25
2018-10-16T08:54:20.194Z,13.44
2018-10-16T08:56:49.796Z,13.68
2018-10-16T08:59:19.539Z,13.91
2018-10-16T09:01:49.214Z,14.14
2018-10-16T09:04:18.887Z,14.35
2018-10-16T09:06:48.497Z,14.52
2018-10-16T09:09:19.006Z,14.68
2018-10-16T09:11:49.397Z,14.89
2018-10-16T09:14:19.185Z,15.08
2018-10-16T09:16:48.686Z,15.27
2018-10-16T09:19:18.333Z,15.41
2018-10-16T09:21:48.017Z,15.62
2018-10-16T09:24:17.618Z,15.82
2018-10-16T09:29:15.753Z,16.22
2018-10-16T09:31:45.539Z,16.29
2018-10-16T09:34:15.133Z,16.49
2018-10-16T09:36:44.762Z,16.58
2018-10-16T09:39:14.359Z,16.83
2018-10-16T09:41:44.068Z,17.02
2018-10-16T09:44:13.671Z,17.19
2018-10-16T09:46:43.400Z,17.48
2018-10-16T09:49:13.009Z,17.70
2018-10-16T09:51:42.599Z,17.95
2018-10-16T09:54:12.237Z,18.07
2018-10-16T09:56:41.931Z,18.28
2018-10-16T09:59:11.534Z,18.48
2018-10-16T10:01:45.941Z,18.67
2018-10-16T10:04:15.616Z,18.88
2018-10-16T10:06:45.272Z,19.09
2018-10-16T10:09:14.890Z,19.38
2018-10-16T10:11:44.488Z,19.51
2018-10-16T10:14:14.050Z,19.68
2018-10-16T10:16:43.714Z,19.91
2018-10-16T10:19:13.290Z,20.13
2018-10-16T10:21:42.871Z,20.30
2018-10-16T10:24:12.477Z,20.46
2018-10-16T10:26:42.084Z,20.69
2018-10-16T10:29:11.733Z,21.00
2018-10-16T10:31:41.353Z,21.31
2018-10-16T10:34:10.871Z,21.56
2018-10-16T10:36:40.573Z,21.69
2018-10-16T10:39:12.744Z,21.99
2018-10-16T10:41:42.951Z,22.41
2018-10-16T10:44:12.565Z,22.79
2018-10-16T10:46:42.251Z,23.26
2018-10-16T10:49:11.843Z,23.66
2018-10-16T10:51:41.763Z,24.05
2018-10-16T10:54:11.168Z,24.13
2018-10-16T10:56:40.838Z,24.31
2018-10-16T10:59:10.227Z,24.29
2018-10-16T11:01:39.629Z,24.26
2018-10-16T11:04:09.046Z,24.25
2018-10-16T11:06:38.445Z,24.12
2018-10-16T11:09:11.505Z,24.01
2018-10-16T11:11:41.536Z,24.00
2018-10-16T11:14:10.952Z,24.02
2018-10-16T11:16:40.413Z,24.03
2018-10-16T11:19:09.823Z,24.02
2018-10-16T11:21:39.225Z,24.04
2018-10-16T11:24:09.003Z,24.09
2018-10-16T11:26:38.421Z,24.19
2018-10-16T11:29:07.860Z,24.21
2018-10-16T11:31:37.620Z,24.14
2018-10-16T11:34:07.412Z,23.95
2018-10-16T11:36:36.876Z,24.10
2018-10-16T11:39:09.810Z,24.23
2018-10-16T11:41:39.240Z,24.21
2018-10-16T11:44:10.375Z,24.21
2018-10-16T11:46:39.960Z,24.15
2018-10-16T11:49:09.799Z,23.93
2018-10-16T11:51:39.188Z,23.65
2018-10-16T11:54:09.119Z,23.76
2018-10-16T11:56:38.803Z,23.71
2018-10-16T11:59:08.227Z,23.57
2018-10-16T12:01:37.656Z,23.51
2018-10-16T12:04:07.087Z,23.33
2018-10-16T12:06:36.585Z,23.11
2018-10-16T12:09:09.422Z,23.03
2018-10-16T12:11:39.740Z,23.03
2018-10-16T12:14:09.846Z,22.84
2018-10-16T12:16:47.278Z,22.80
2018-10-16T12:19:21.908Z,22.77
2018-10-16T12:21:51.320Z,22.68
2018-10-16T12:24:20.760Z,22.75
2018-10-16T12:26:50.149Z,22.74
2018-10-16T12:29:19.560Z,22.61
2018-10-16T12:31:48.967Z,22.55
2018-10-16T12:34:18.363Z,22.49
2018-10-16T12:36:47.775Z,22.41
2018-10-16T12:39:17.224Z,22.52
2018-10-16T12:41:46.671Z,22.55
2018-10-16T12:44:16.096Z,22.41
2018-10-16T12:46:45.500Z,22.56
2018-10-16T12:49:15.063Z,22.58
2018-10-16T12:51:44.584Z,22.43
2018-10-16T12:54:14.098Z,22.48
2018-10-16T12:56:43.462Z,22.58
2018-10-16T12:59:12.935Z,22.64
2018-10-16T13:01:42.282Z,22.74
2018-10-16T13:04:11.684Z,22.96
2018-10-16T13:06:41.201Z,23.28
2018-10-16T13:09:11.972Z,23.54
2018-10-16T13:11:42.257Z,23.65
2018-10-16T13:14:11.774Z,24.05
2018-10-16T13:16:41.165Z,25.16
2018-10-16T13:19:10.576Z,25.46
2018-10-16T13:21:39.965Z,25.21
2018-10-16T13:24:09.356Z,24.88
2018-10-16T13:26:38.772Z,24.81
2018-10-16T13:29:08.419Z,24.70
2018-10-16T13:31:37.739Z,24.62
2018-10-16T13:34:07.248Z,24.49
2018-10-16T13:36:36.628Z,24.73
2018-10-16T13:39:08.487Z,24.85
2018-10-16T13:41:37.893Z,25.04
2018-10-16T13:44:07.294Z,24.96
2018-10-16T13:46:36.680Z,24.80
2018-10-16T13:49:07.151Z,24.44
2018-10-16T13:51:36.544Z,24.13
2018-10-16T13:54:06.420Z,23.71
2018-10-16T13:56:35.832Z,23.53
2018-10-16T13:59:05.800Z,23.76
2018-10-16T14:01:35.236Z,23.85
2018-10-16T14:04:04.702Z,24.49
2018-10-16T14:06:34.025Z,25.09
2018-10-16T14:09:05.177Z,26.16
2018-10-16T14:11:34.579Z,27.04
2018-10-16T14:14:04.445Z,27.86
2018-10-16T14:16:33.847Z,29.07
2018-10-16T14:19:04.732Z,30.12
2018-10-16T14:21:34.140Z,30.71
2018-10-16T14:24:04.775Z,30.06
2018-10-16T14:26:34.224Z,30.56
2018-10-16T14:29:05.837Z,30.47
2018-10-16T14:31:35.241Z,30.44
2018-10-16T14:34:04.760Z,29.66
2018-10-16T14:36:34.160Z,29.54
2018-10-16T14:39:07.004Z,29.43
2018-10-16T14:41:36.443Z,29.58
2018-10-16T14:44:06.330Z,28.87
2018-10-16T14:46:35.892Z,29.82
2018-10-16T14:49:05.323Z,30.30
2018-10-16T14:51:35.520Z,30.41
2018-10-16T14:54:05.047Z,30.98
2018-10-16T14:56:34.945Z,30.39
2018-10-16T14:59:04.859Z,30.56
2018-10-16T15:01:34.288Z,30.39
2018-10-16T15:04:05.113Z,31.18
2018-10-16T15:06:34.476Z,31.59
2018-10-16T15:09:06.756Z,31.56
2018-10-16T15:11:36.160Z,31.31
2018-10-16T15:14:05.747Z,31.42
2018-10-16T15:16:35.323Z,31.03
2018-10-16T15:19:04.798Z,29.62
2018-10-16T15:21:34.219Z,29.75
2018-10-16T15:24:04.803Z,29.33
2018-10-16T15:26:34.239Z,28.49
2018-10-16T15:29:05.128Z,27.95
2018-10-16T15:31:34.581Z,27.65
2018-10-16T15:34:05.188Z,26.98
2018-10-16T15:36:34.588Z,25.96
2018-10-16T15:39:08.160Z,25.62
2018-10-16T15:41:37.695Z,25.49
2018-10-16T15:44:07.829Z,25.30
2018-10-16T15:46:37.728Z,24.66
2018-10-16T15:49:07.183Z,24.35
2018-10-16T15:51:36.959Z,23.74
2018-10-16T15:54:06.814Z,23.59
2018-10-16T15:56:36.133Z,23.60
2018-10-16T15:59:05.573Z,23.26
2018-10-16T16:01:34.994Z,22.95
2018-10-16T16:04:05.271Z,22.52
2018-10-16T16:06:34.652Z,22.44
2018-10-16T16:09:06.867Z,22.53
2018-10-16T16:11:36.343Z,22.30
2018-10-16T16:14:05.972Z,22.24
2018-10-16T16:16:35.546Z,22.12
2018-10-16T16:19:05.702Z,21.90
2018-10-16T16:21:35.192Z,21.67
2018-10-16T16:24:05.370Z,21.28
2018-10-16T16:26:34.740Z,21.22
2018-10-16T16:29:06.434Z,21.12
2018-10-16T16:31:35.857Z,20.92
2018-10-16T16:34:05.689Z,20.84
2018-10-16T16:36:35.098Z,20.73
2018-10-16T16:39:08.780Z,20.58
2018-10-16T16:41:38.205Z,20.43
2018-10-16T16:44:07.744Z,20.28
2018-10-16T16:46:37.239Z,20.20
2018-10-16T16:49:07.451Z,20.12
2018-10-16T16:51:36.895Z,19.87
2018-10-16T16:54:06.713Z,19.74
2018-10-16T16:56:36.132Z,19.58
2018-10-16T16:59:05.642Z,19.41
2018-10-16T17:01:35.143Z,19.34
2018-10-16T17:04:06.014Z,19.29
2018-10-16T17:06:35.375Z,19.28
2018-10-16T17:09:09.060Z,19.21
2018-10-16T17:11:38.710Z,19.08
2018-10-16T17:14:08.423Z,18.86
2018-10-16T17:16:37.857Z,18.80
2018-10-16T17:19:07.648Z,18.77
2018-10-16T17:21:37.289Z,18.72
2018-10-16T17:24:06.769Z,18.68
2018-10-16T17:26:36.220Z,18.63
2018-10-16T17:29:06.712Z,18.54
2018-10-16T17:31:36.137Z,18.20
2018-10-16T17:34:05.676Z,18.16
2018-10-16T17:36:35.074Z,18.10
2018-10-16T17:39:07.652Z,18.08
2018-10-16T17:41:37.065Z,18.15
2018-10-16T17:44:07.637Z,18.18
2018-10-16T17:46:37.349Z,18.26
2018-10-16T17:49:07.604Z,18.31
2018-10-16T17:51:37.736Z,18.33
2018-10-16T17:54:07.279Z,18.29
2018-10-16T17:56:36.748Z,18.28
2018-10-16T17:59:07.048Z,18.20
2018-10-16T18:01:37.730Z,18.02
2018-10-16T18:04:09.219Z,17.92
2018-10-16T18:06:40.110Z,17.48
2018-10-16T18:09:11.207Z,17.46
2018-10-16T18:11:41.969Z,17.48
2018-10-16T18:14:13.301Z,17.37
2018-10-16T18:16:46.044Z,17.30
2018-10-16T18:19:17.475Z,17.22
2018-10-16T18:21:48.447Z,17.21
2018-10-16T18:24:19.736Z,17.35
2018-10-16T18:26:51.331Z,17.37
2018-10-16T18:29:24.029Z,17.35
2018-10-16T18:31:55.575Z,17.37
2018-10-16T18:34:27.956Z,17.18
2018-10-16T18:36:58.915Z,17.15
2018-10-16T18:39:31.661Z,17.20
2018-10-16T18:42:04.400Z,17.25
2018-10-16T18:44:37.369Z,17.20
2018-10-16T18:47:10.347Z,17.14
2018-10-16T18:49:43.331Z,16.97
2018-10-16T18:52:16.732Z,16.93
2018-10-16T18:54:49.615Z,16.92
2018-10-16T18:57:22.518Z,16.92
2018-10-16T18:59:55.767Z,16.90
2018-10-16T19:02:28.450Z,16.89
2018-10-16T19:05:01.382Z,16.66
2018-10-16T19:07:34.577Z,16.71
2018-10-16T19:10:07.942Z,16.67
2018-10-16T19:12:41.970Z,16.61
2018-10-16T19:15:16.826Z,16.58
2018-10-16T19:17:49.873Z,16.58
2018-10-16T19:20:23.202Z,16.56
2018-10-16T19:22:56.151Z,16.51
2018-10-16T19:25:29.301Z,16.37
2018-10-16T19:28:02.602Z,16.36
2018-10-16T19:30:35.429Z,16.35
2018-10-16T19:33:08.619Z,16.22
2018-10-16T19:35:41.828Z,16.19
2018-10-16T19:38:14.735Z,16.17
2018-10-16T19:40:47.792Z,16.16
2018-10-16T19:43:20.976Z,16.15
2018-10-16T19:45:53.956Z,16.08
2018-10-16T19:48:26.975Z,16.05
2018-10-16T19:50:59.942Z,15.94
2018-10-16T19:53:32.919Z,15.83
2018-10-16T19:56:06.710Z,15.79
2018-10-16T19:58:39.570Z,15.63
2018-10-16T20:01:12.765Z,15.53
2018-10-16T20:03:45.651Z,15.45
2018-10-16T20:06:18.876Z,15.29
2018-10-16T20:08:52.045Z,15.25
2018-10-16T20:11:25.396Z,15.20
2018-10-16T20:13:58.289Z,15.09
2018-10-16T20:16:32.515Z,14.90
2018-10-16T20:19:06.202Z,14.83
2018-10-16T20:21:39.247Z,14.86
2018-10-16T20:24:12.207Z,14.86
2018-10-16T20:26:45.289Z,14.62
2018-10-16T20:29:18.257Z,14.62
2018-10-16T20:31:51.218Z,14.63
2018-10-16T20:34:24.314Z,14.62
2018-10-16T20:36:56.561Z,14.57
2018-10-16T20:39:27.792Z,14.54
2018-10-16T20:42:00.599Z,14.52
2018-10-16T20:44:32.513Z,14.50
2018-10-16T20:47:03.173Z,14.40
2018-10-16T20:49:33.446Z,14.26
2018-10-16T20:52:03.100Z,14.06
2018-10-16T20:54:32.844Z,13.96
2018-10-16T20:57:02.284Z,13.86
2018-10-16T20:59:31.715Z,13.69
2018-10-16T21:02:01.244Z,13.52
2018-10-16T21:04:30.741Z,13.52
2018-10-16T21:07:00.183Z,13.57
2018-10-16T21:09:29.519Z,13.59
2018-10-16T21:11:58.937Z,13.62
2018-10-16T21:14:28.331Z,13.61
2018-10-16T21:16:57.767Z,13.55
2018-10-16T21:19:27.273Z,13.48
2018-10-16T21:21:56.701Z,13.45
2018-10-16T21:24:26.099Z,13.38
2018-10-16T21:27:11.795Z,13.26
2018-10-16T21:29:41.229Z,13.25
2018-10-16T21:32:10.636Z,13.25
2018-10-16T21:34:40.077Z,13.18
2018-10-16T21:37:09.572Z,13.08
2018-10-16T21:39:38.979Z,12.99
2018-10-16T21:42:08.371Z,12.96
2018-10-16T21:44:37.796Z,12.98
2018-10-16T21:47:07.277Z,12.93
2018-10-16T21:49:36.636Z,12.74
2018-10-16T21:52:06.070Z,12.63
2018-10-16T21:54:35.540Z,12.53
2018-10-16T21:57:04.967Z,12.45
2018-10-16T21:59:34.487Z,12.24
2018-10-16T22:02:08.961Z,12.03
2018-10-16T22:04:40.459Z,11.99
2018-10-16T22:07:10.495Z,12.00
2018-10-16T22:09:39.891Z,12.00
2018-10-16T22:12:09.280Z,11.98
2018-10-16T22:14:38.716Z,11.99
2018-10-16T22:17:08.210Z,12.05
2018-10-16T22:19:37.585Z,11.97
2018-10-16T22:22:07.065Z,11.91
2018-10-16T22:24:36.489Z,11.91
2018-10-16T22:27:06.112Z,11.98
2018-10-16T22:29:35.541Z,12.08
2018-10-16T22:32:04.960Z,12.12
2018-10-16T22:34:34.372Z,12.16
2018-10-16T22:37:04.013Z,12.13
2018-10-16T22:39:33.359Z,12.12
2018-10-16T22:42:02.760Z,12.15
2018-10-16T22:44:32.222Z,12.17
2018-10-16T22:47:01.632Z,12.14
2018-10-16T22:49:31.030Z,12.17
2018-10-16T22:52:00.433Z,12.22
2018-10-16T22:54:29.828Z,12.25
2018-10-16T22:56:59.243Z,12.27
2018-10-16T22:59:28.647Z,12.24
2018-10-16T23:01:58.064Z,12.24
2018-10-16T23:04:27.479Z,12.24
2018-10-16T23:06:56.937Z,12.24
2018-10-16T23:09:26.292Z,12.24
2018-10-16T23:11:55.703Z,12.26
2018-10-16T23:14:25.203Z,12.09
2018-10-16T23:16:54.699Z,12.12
2018-10-16T23:19:24.092Z,12.08
2018-10-16T23:21:53.576Z,12.06
2018-10-16T23:24:22.971Z,12.06
2018-10-16T23:26:52.464Z,11.91
2018-10-16T23:29:21.871Z,11.81
2018-10-16T23:31:51.355Z,11.77
2018-10-16T23:34:20.791Z,11.74
2018-10-16T23:36:50.268Z,11.77
2018-10-16T23:39:19.675Z,11.72
2018-10-16T23:41:49.066Z,11.76
2018-10-16T23:44:18.480Z,11.79
2018-10-16T23:46:47.871Z,11.77
2018-10-16T23:49:17.273Z,11.73
2018-10-16T23:51:46.679Z,11.68
2018-10-16T23:54:16.223Z,11.64
2018-10-16T23:56:45.649Z,11.57
2018-10-16T23:59:15.171Z,11.48
